Terminal Aerodrome Forecast
Issued by NWS Mt. Holly, NJ

Home | Current Version | Previous Version | Text Only | Print | Product List | Glossary On
Versions: 1 2 3 4 5 6 7 8 9 10 11 12 13 14 15
517
FTUS41 KPHI 240534
TAFACY
TAF
KACY 240534Z 2406/2506 19008KT P6SM SCT250
     FM241000 18006KT P6SM SCT015
     FM241400 18010KT P6SM SCT045
     FM250100 17004KT P6SM SCT045=

USA.gov is the U.S. government's official web portal to all federal, state and local government web resources and services.